createdAt,value
2022-12-15T00:02:34.494Z,30.52
2022-12-15T00:05:19.647Z,29.75
2022-12-15T00:08:05.014Z,30.35
2022-12-15T00:10:50.339Z,28.05
2022-12-15T00:13:35.733Z,27.35
2022-12-15T00:16:21.168Z,28.60
2022-12-15T00:19:06.422Z,27.15
2022-12-15T00:21:51.845Z,32.42
2022-12-15T00:24:36.995Z,26.70
2022-12-15T00:27:22.271Z,27.45
2022-12-15T00:30:07.727Z,28.88
2022-12-15T00:32:53.243Z,27.27
2022-12-15T00:35:38.468Z,27.30
2022-12-15T00:38:33.594Z,26.75
2022-12-15T00:41:03.386Z,26.23
2022-12-15T00:43:33.590Z,28.20
2022-12-15T00:46:19.436Z,30.05
2022-12-15T00:48:47.016Z,31.33
2022-12-15T00:51:14.585Z,26.65
2022-12-15T00:54:00.279Z,29.13
2022-12-15T00:56:45.569Z,28.45
2022-12-15T00:59:31.463Z,28.10
2022-12-15T01:02:17.057Z,26.83
2022-12-15T01:05:02.156Z,28.23
2022-12-15T01:07:49.618Z,26.13
2022-12-15T01:10:36.295Z,25.83
2022-12-15T01:13:22.117Z,28.77
2022-12-15T01:16:07.563Z,26.25
2022-12-15T01:18:53.836Z,26.30
2022-12-15T01:21:24.281Z,26.35
2022-12-15T01:23:52.178Z,27.48
2022-12-15T01:26:18.822Z,28.15
2022-12-15T01:28:45.454Z,28.52
2022-12-15T01:31:12.720Z,25.85
2022-12-15T01:33:39.950Z,24.88
2022-12-15T01:36:07.240Z,24.02
2022-12-15T01:38:33.916Z,24.55
2022-12-15T01:41:06.563Z,25.23
2022-12-15T01:43:35.970Z,27.60
2022-12-15T01:46:23.545Z,25.55
2022-12-15T01:49:15.385Z,26.00
2022-12-15T01:51:47.293Z,24.67
2022-12-15T01:54:25.336Z,29.10
2022-12-15T01:56:57.279Z,30.98
2022-12-15T01:59:32.667Z,28.20
2022-12-15T02:01:59.371Z,30.52
2022-12-15T02:04:26.410Z,33.17
2022-12-15T02:06:53.549Z,31.42
2022-12-15T02:09:22.453Z,33.08
2022-12-15T02:12:16.245Z,30.63
2022-12-15T02:14:58.767Z,29.73
2022-12-15T02:18:04.559Z,29.40
2022-12-15T02:21:12.884Z,29.30
2022-12-15T02:24:00.670Z,27.30
2022-12-15T02:27:16.918Z,29.33
2022-12-15T02:30:22.732Z,26.70
2022-12-15T02:33:11.474Z,30.55
2022-12-15T02:36:09.911Z,29.65
2022-12-15T02:38:39.453Z,30.52
2022-12-15T02:41:26.810Z,30.30
2022-12-15T02:43:53.542Z,32.08
2022-12-15T02:46:50.495Z,28.75
2022-12-15T02:49:57.487Z,28.98
2022-12-15T02:52:57.270Z,27.50
2022-12-15T02:56:03.418Z,29.10
2022-12-15T02:58:52.707Z,30.25
2022-12-15T03:01:30.235Z,29.23
2022-12-15T03:04:00.266Z,29.38
2022-12-15T03:06:27.183Z,29.13
2022-12-15T03:08:53.752Z,28.92
2022-12-15T03:11:20.406Z,31.13
2022-12-15T03:13:47.013Z,28.98
2022-12-15T03:16:16.931Z,28.63
2022-12-15T03:18:43.594Z,28.55
2022-12-15T03:21:10.249Z,29.45
2022-12-15T03:23:36.853Z,28.13
2022-12-15T03:26:03.668Z,27.40
2022-12-15T03:28:30.248Z,26.45
2022-12-15T03:30:56.798Z,28.25
2022-12-15T03:33:23.406Z,29.15
2022-12-15T03:35:51.189Z,28.40
2022-12-15T03:38:18.406Z,26.00
2022-12-15T03:40:45.051Z,29.10
2022-12-15T03:43:11.648Z,29.83
2022-12-15T03:45:38.270Z,27.25
2022-12-15T03:48:05.024Z,29.30
2022-12-15T03:50:31.669Z,27.70
2022-12-15T03:53:00.576Z,26.08
2022-12-15T03:55:30.980Z,27.85
2022-12-15T03:57:59.129Z,29.40
2022-12-15T04:00:25.877Z,29.45
2022-12-15T04:02:52.993Z,40.63
2022-12-15T04:05:31.118Z,31.00
2022-12-15T04:07:58.910Z,30.73
2022-12-15T04:10:33.674Z,30.63
2022-12-15T04:13:02.659Z,30.33
2022-12-15T04:15:29.491Z,31.83
2022-12-15T04:17:56.775Z,29.30
2022-12-15T04:20:24.095Z,28.67
2022-12-15T04:22:51.308Z,28.95
2022-12-15T04:25:39.423Z,26.77
2022-12-15T04:28:25.716Z,29.42
2022-12-15T04:31:17.197Z,29.38
2022-12-15T04:34:08.415Z,28.30
2022-12-15T04:36:56.367Z,28.50
2022-12-15T04:39:42.257Z,28.77
2022-12-15T04:42:28.036Z,28.08
2022-12-15T04:45:20.618Z,30.20
2022-12-15T04:48:06.586Z,29.33
2022-12-15T04:50:51.965Z,29.60
2022-12-15T04:53:37.785Z,29.38
2022-12-15T04:56:27.767Z,29.30
2022-12-15T04:59:13.160Z,34.17
2022-12-15T05:01:58.696Z,33.22
2022-12-15T05:04:43.930Z,29.58
2022-12-15T05:07:29.106Z,28.25
2022-12-15T05:10:15.347Z,29.20
2022-12-15T05:13:01.341Z,31.08
2022-12-15T05:15:46.924Z,27.00
2022-12-15T05:18:32.052Z,28.90
2022-12-15T05:21:17.947Z,29.33
2022-12-15T05:24:03.296Z,29.90
2022-12-15T05:26:52.641Z,31.00
2022-12-15T05:29:39.449Z,28.55
2022-12-15T05:32:07.376Z,31.02
2022-12-15T05:34:35.937Z,30.45
2022-12-15T05:37:03.893Z,31.25
2022-12-15T05:39:30.512Z,32.38
2022-12-15T05:41:57.406Z,29.52
2022-12-15T05:44:25.257Z,32.70
2022-12-15T05:46:52.012Z,30.27
2022-12-15T05:49:19.177Z,31.00
2022-12-15T05:51:47.662Z,30.88
2022-12-15T05:54:19.587Z,31.38
2022-12-15T05:56:50.157Z,30.98
2022-12-15T05:59:17.323Z,31.13
2022-12-15T06:01:43.862Z,29.15
2022-12-15T06:04:12.760Z,28.42
2022-12-15T06:06:40.059Z,29.60
2022-12-15T06:09:08.116Z,28.85
2022-12-15T06:11:34.820Z,28.20
2022-12-15T06:14:01.475Z,30.30
2022-12-15T06:16:28.228Z,26.23
2022-12-15T06:18:58.598Z,29.52
2022-12-15T06:21:27.938Z,30.48
2022-12-15T06:23:56.227Z,27.38
2022-12-15T06:26:40.240Z,30.17
2022-12-15T06:29:10.473Z,30.23
2022-12-15T06:31:38.157Z,29.55
2022-12-15T06:34:07.756Z,29.52
2022-12-15T06:36:34.741Z,30.10
2022-12-15T06:39:04.241Z,29.80
2022-12-15T06:41:31.685Z,28.52
2022-12-15T06:43:59.376Z,27.05
2022-12-15T06:46:27.890Z,29.05
2022-12-15T06:48:54.693Z,30.75
2022-12-15T06:51:21.288Z,30.13
2022-12-15T06:53:54.128Z,29.63
2022-12-15T06:56:32.653Z,31.23
2022-12-15T06:59:00.330Z,27.42
2022-12-15T07:01:27.556Z,26.67
2022-12-15T07:03:54.807Z,29.27
2022-12-15T07:06:21.615Z,31.58
2022-12-15T07:08:56.417Z,29.30
2022-12-15T07:11:23.687Z,29.58
2022-12-15T07:13:51.640Z,27.70
2022-12-15T07:16:18.766Z,28.48
2022-12-15T07:18:45.337Z,31.65
2022-12-15T07:21:12.143Z,30.60
2022-12-15T07:23:56.246Z,29.27
2022-12-15T07:26:24.259Z,30.17
2022-12-15T07:28:50.879Z,32.03
2022-12-15T07:31:17.961Z,31.88
2022-12-15T07:33:45.182Z,32.10
2022-12-15T07:36:11.834Z,33.20
2022-12-15T07:38:38.512Z,31.25
2022-12-15T07:41:07.723Z,32.53
2022-12-15T07:43:35.580Z,32.15
2022-12-15T07:46:03.186Z,32.67
2022-12-15T07:48:30.081Z,33.03
2022-12-15T07:51:08.481Z,33.38
2022-12-15T07:53:38.264Z,30.05
2022-12-15T07:56:08.425Z,31.25
2022-12-15T07:58:36.162Z,26.63
2022-12-15T08:01:05.826Z,33.17
2022-12-15T08:03:33.041Z,30.35
2022-12-15T08:06:05.378Z,31.50
2022-12-15T08:08:32.569Z,33.97
2022-12-15T08:10:59.432Z,31.98
2022-12-15T08:14:00.695Z,28.75
2022-12-15T08:16:12.944Z,31.80
2022-12-15T08:18:39.647Z,31.20
2022-12-15T08:21:10.186Z,30.95
2022-12-15T08:23:37.833Z,30.88
2022-12-15T08:26:05.907Z,28.08
2022-12-15T08:28:34.229Z,31.60
2022-12-15T08:31:06.040Z,30.15
2022-12-15T08:33:33.337Z,29.55
2022-12-15T08:36:03.072Z,32.83
2022-12-15T08:38:31.480Z,33.95
2022-12-15T08:40:58.357Z,33.40
2022-12-15T08:43:24.954Z,32.92
2022-12-15T08:45:51.615Z,34.30
2022-12-15T08:48:18.228Z,33.92
2022-12-15T08:50:45.877Z,35.17
2022-12-15T08:56:07.799Z,35.20
2022-12-15T08:58:34.594Z,33.08
2022-12-15T09:01:06.309Z,33.03
2022-12-15T09:03:35.077Z,32.88
2022-12-15T09:06:07.509Z,32.30
2022-12-15T09:08:34.815Z,30.17
2022-12-15T09:11:02.460Z,32.25
2022-12-15T09:13:30.019Z,30.70
2022-12-15T09:16:10.905Z,30.92
2022-12-15T09:18:38.003Z,31.45
2022-12-15T09:21:07.506Z,31.38
2022-12-15T09:23:36.238Z,32.60
2022-12-15T09:26:17.147Z,30.42
2022-12-15T09:28:43.815Z,32.42
2022-12-15T09:31:21.977Z,34.83
2022-12-15T09:33:51.215Z,33.65
2022-12-15T09:36:18.236Z,33.53
2022-12-15T09:38:45.021Z,31.85
2022-12-15T09:41:31.858Z,32.05
2022-12-15T09:44:14.497Z,30.30
2022-12-15T09:47:32.184Z,30.58
2022-12-15T09:50:01.616Z,31.10
2022-12-15T09:52:41.803Z,31.77
2022-12-15T09:55:21.433Z,31.92
2022-12-15T09:57:56.361Z,30.42
2022-12-15T10:00:25.910Z,29.92
2022-12-15T10:03:30.646Z,27.83
2022-12-15T10:06:22.688Z,28.33
2022-12-15T10:09:02.309Z,30.85
2022-12-15T10:11:57.420Z,28.05
2022-12-15T10:14:41.881Z,28.92
2022-12-15T10:17:30.577Z,26.58
2022-12-15T10:20:22.017Z,29.52
2022-12-15T10:22:50.488Z,31.13
2022-12-15T10:25:30.540Z,32.20
2022-12-15T10:28:27.259Z,32.38
2022-12-15T10:31:02.513Z,33.03
2022-12-15T10:33:36.791Z,37.13
2022-12-15T10:36:10.908Z,32.50
2022-12-15T10:38:47.497Z,32.00
2022-12-15T10:41:25.890Z,31.50
2022-12-15T10:43:54.243Z,32.38
2022-12-15T10:46:24.213Z,32.35
2022-12-15T10:48:59.391Z,31.55
2022-12-15T10:51:42.722Z,36.63
2022-12-15T10:54:13.974Z,33.33
2022-12-15T10:56:58.175Z,34.17
2022-12-15T10:59:36.429Z,33.78
2022-12-15T11:02:38.673Z,34.42
2022-12-15T11:05:16.241Z,33.08
2022-12-15T11:07:47.597Z,32.72
2022-12-15T11:10:20.374Z,33.83
2022-12-15T11:13:17.696Z,35.67
2022-12-15T11:15:47.221Z,32.63
2022-12-15T11:19:00.716Z,36.95
2022-12-15T11:21:32.927Z,35.15
2022-12-15T11:24:39.994Z,34.63
2022-12-15T11:27:15.546Z,34.47
2022-12-15T11:30:22.339Z,36.35
2022-12-15T11:32:53.616Z,35.28
2022-12-15T11:36:10.086Z,38.53
2022-12-15T11:38:52.217Z,38.60
2022-12-15T11:41:50.356Z,36.47
2022-12-15T11:44:45.180Z,36.92
2022-12-15T11:47:46.253Z,35.08
2022-12-15T11:50:31.402Z,37.65
2022-12-15T11:53:23.761Z,36.17
2022-12-15T11:56:33.837Z,39.63
2022-12-15T11:59:15.788Z,39.42
2022-12-15T12:02:02.399Z,39.78
2022-12-15T12:05:17.376Z,37.22
2022-12-15T12:07:49.058Z,37.92
2022-12-15T12:11:10.112Z,39.88
2022-12-15T12:14:23.082Z,39.38
2022-12-15T12:16:53.873Z,44.05
2022-12-15T12:20:06.304Z,38.77
2022-12-15T12:23:00.083Z,39.33
2022-12-15T12:25:27.003Z,38.08
2022-12-15T12:28:00.084Z,41.17
2022-12-15T12:30:33.986Z,40.70
2022-12-15T12:33:28.425Z,42.45
2022-12-15T12:36:02.336Z,39.85
2022-12-15T12:38:56.804Z,43.88
2022-12-15T12:41:59.884Z,40.83
2022-12-15T12:47:00.386Z,42.17
2022-12-15T12:50:00.128Z,45.15
2022-12-15T12:52:31.356Z,43.15
2022-12-15T12:55:09.458Z,46.97
2022-12-15T12:57:41.965Z,45.58
2022-12-15T13:00:20.761Z,43.60
2022-12-15T13:03:21.055Z,45.28
2022-12-15T13:05:50.547Z,44.83
2022-12-15T13:08:26.739Z,47.60
2022-12-15T13:10:55.357Z,42.30
2022-12-15T13:13:51.294Z,41.70
2022-12-15T13:16:40.120Z,38.75
2022-12-15T13:19:08.545Z,41.28
2022-12-15T13:21:55.109Z,39.95
2022-12-15T13:24:46.135Z,39.38
2022-12-15T13:27:17.292Z,37.10
2022-12-15T13:30:00.481Z,38.80
2022-12-15T13:32:41.992Z,37.30
2022-12-15T13:35:25.212Z,37.17
2022-12-15T13:37:55.857Z,39.80
2022-12-15T13:40:54.684Z,36.45
2022-12-15T13:43:41.510Z,36.78
2022-12-15T13:46:18.549Z,37.20
2022-12-15T13:48:50.207Z,40.72
2022-12-15T13:51:30.416Z,38.03
2022-12-15T13:54:09.923Z,34.17
2022-12-15T13:56:43.155Z,38.47
2022-12-15T13:59:35.741Z,37.55
2022-12-15T14:02:02.349Z,37.42
2022-12-15T14:04:29.063Z,37.65
2022-12-15T14:07:00.090Z,37.63
2022-12-15T14:09:33.314Z,35.92
2022-12-15T14:12:02.476Z,35.53
2022-12-15T14:14:36.154Z,37.55
2022-12-15T14:17:07.746Z,38.40
2022-12-15T14:19:42.611Z,38.10
2022-12-15T14:22:29.000Z,36.92
2022-12-15T14:25:13.250Z,36.92
2022-12-15T14:27:39.853Z,36.38
2022-12-15T14:30:20.182Z,36.85
2022-12-15T14:32:52.558Z,36.60
2022-12-15T14:35:31.200Z,36.30
2022-12-15T14:38:01.859Z,34.85
2022-12-15T14:40:29.838Z,37.83
2022-12-15T14:42:56.762Z,38.13
2022-12-15T14:45:28.560Z,36.25
2022-12-15T14:48:30.659Z,38.22
2022-12-15T14:50:48.616Z,39.95
2022-12-15T14:53:17.853Z,36.70
2022-12-15T14:55:44.549Z,37.45
2022-12-15T14:58:33.196Z,42.35
2022-12-15T15:01:01.716Z,38.05
2022-12-15T15:03:36.139Z,40.05
2022-12-15T15:06:17.644Z,41.83
2022-12-15T15:08:52.873Z,40.85
2022-12-15T15:11:29.689Z,42.10
2022-12-15T15:14:03.353Z,42.25
2022-12-15T15:16:30.211Z,39.38
2022-12-15T15:19:00.879Z,43.58
2022-12-15T15:21:30.676Z,41.92
2022-12-15T15:24:20.381Z,42.45
2022-12-15T15:26:47.069Z,40.80
2022-12-15T15:29:39.606Z,41.58
2022-12-15T15:32:17.795Z,41.72
2022-12-15T15:34:47.153Z,43.30
2022-12-15T15:37:24.937Z,40.28
2022-12-15T15:39:53.402Z,42.53
2022-12-15T15:42:20.239Z,41.47
2022-12-15T15:44:46.869Z,43.63
2022-12-15T15:47:33.716Z,41.25
2022-12-15T15:50:00.497Z,41.08
2022-12-15T15:52:29.639Z,42.97
2022-12-15T15:54:56.367Z,41.92
2022-12-15T15:57:22.942Z,43.80
2022-12-15T15:59:49.471Z,44.63
2022-12-15T16:02:16.198Z,57.72
2022-12-15T16:04:45.730Z,105.75
2022-12-15T16:07:22.289Z,49.53
2022-12-15T16:09:49.328Z,44.05
2022-12-15T16:12:40.688Z,44.67
2022-12-15T16:15:20.533Z,45.67
2022-12-15T16:17:47.877Z,74.00
2022-12-15T16:20:17.068Z,46.80
2022-12-15T16:22:46.579Z,49.60
2022-12-15T16:25:26.015Z,43.65
2022-12-15T16:27:52.565Z,46.75
2022-12-15T16:30:25.713Z,43.83
2022-12-15T16:32:54.977Z,43.25
2022-12-15T16:35:26.063Z,42.83
2022-12-15T16:37:52.817Z,45.90
2022-12-15T16:40:25.425Z,45.33
2022-12-15T16:42:58.088Z,43.75
2022-12-15T16:45:26.871Z,45.03
2022-12-15T16:47:53.959Z,46.05
2022-12-15T16:50:30.324Z,46.85
2022-12-15T16:52:58.363Z,43.97
2022-12-15T16:55:32.715Z,47.72
2022-12-15T16:58:04.905Z,45.55
2022-12-15T17:00:34.201Z,44.63
2022-12-15T17:03:02.393Z,44.60
2022-12-15T17:05:32.964Z,44.33
2022-12-15T17:08:02.684Z,47.60
2022-12-15T17:10:30.761Z,47.10
2022-12-15T17:13:03.873Z,48.10
2022-12-15T17:15:30.439Z,44.97
2022-12-15T17:17:57.359Z,48.50
2022-12-15T17:20:29.773Z,49.72
2022-12-15T17:23:04.540Z,153.50
2022-12-15T17:26:17.238Z,72.57
2022-12-15T17:28:31.009Z,87.07
2022-12-15T17:30:57.914Z,64.30
2022-12-15T17:33:30.052Z,64.82
2022-12-15T17:36:01.197Z,62.58
2022-12-15T17:38:28.176Z,50.70
2022-12-15T17:40:55.275Z,47.47
2022-12-15T17:43:28.189Z,47.45
2022-12-15T17:45:58.622Z,46.38
2022-12-15T17:48:25.470Z,45.97
2022-12-15T17:50:53.602Z,51.50
2022-12-15T17:53:22.676Z,49.20
2022-12-15T17:55:50.376Z,51.63
2022-12-15T17:58:25.314Z,46.28
2022-12-15T18:00:55.754Z,45.58
2022-12-15T18:03:23.392Z,48.97
2022-12-15T18:05:52.910Z,46.92
2022-12-15T18:08:25.266Z,48.00
2022-12-15T18:10:56.677Z,46.45
2022-12-15T18:13:33.368Z,47.90
2022-12-15T18:16:02.060Z,47.15
2022-12-15T18:18:29.018Z,49.60
2022-12-15T18:21:03.431Z,48.72
2022-12-15T18:23:31.400Z,50.08
2022-12-15T18:26:02.941Z,48.15
2022-12-15T18:28:32.576Z,49.50
2022-12-15T18:31:14.021Z,49.80
2022-12-15T18:33:40.755Z,48.83
2022-12-15T18:36:09.311Z,48.25
2022-12-15T18:38:35.885Z,45.97
2022-12-15T18:41:04.493Z,50.08
2022-12-15T18:43:33.884Z,46.45
2022-12-15T18:46:01.092Z,50.28
2022-12-15T18:48:33.639Z,49.50
2022-12-15T18:53:34.435Z,46.05
2022-12-15T18:56:04.193Z,46.75
2022-12-15T18:58:36.251Z,45.47
2022-12-15T19:01:04.797Z,47.28
2022-12-15T19:03:32.101Z,71.28
2022-12-15T19:06:35.938Z,52.22
2022-12-15T19:09:12.270Z,59.38
2022-12-15T19:11:39.252Z,51.55
2022-12-15T19:14:32.987Z,53.03
2022-12-15T19:17:18.466Z,65.85
2022-12-15T19:20:03.348Z,60.05
2022-12-15T19:22:30.790Z,52.13
2022-12-15T19:24:58.521Z,53.45
2022-12-15T19:27:26.586Z,50.85
2022-12-15T19:29:54.527Z,51.97
2022-12-15T19:32:21.744Z,49.85
2022-12-15T19:34:48.642Z,48.67
2022-12-15T19:37:30.941Z,48.90
2022-12-15T19:40:00.666Z,48.30
2022-12-15T19:42:35.606Z,47.65
2022-12-15T19:45:13.802Z,48.08
2022-12-15T19:47:40.360Z,48.40
2022-12-15T19:50:07.697Z,48.05
2022-12-15T19:52:34.672Z,51.38
2022-12-15T19:55:01.384Z,51.28
2022-12-15T19:57:27.961Z,50.67
2022-12-15T19:59:54.577Z,46.55
2022-12-15T20:02:21.684Z,46.55
2022-12-15T20:04:48.733Z,47.45
2022-12-15T20:07:33.353Z,49.92
2022-12-15T20:10:00.739Z,48.88
2022-12-15T20:12:27.396Z,49.20
2022-12-15T20:14:54.064Z,50.40
2022-12-15T20:17:20.601Z,53.38
2022-12-15T20:19:47.134Z,53.40
2022-12-15T20:22:16.048Z,47.38
2022-12-15T20:24:43.800Z,46.50
2022-12-15T20:27:15.367Z,46.80
2022-12-15T20:29:42.344Z,50.40
2022-12-15T20:32:15.580Z,49.47
2022-12-15T20:34:42.252Z,46.08
2022-12-15T20:37:29.343Z,47.30
2022-12-15T20:39:57.876Z,47.45
2022-12-15T20:42:25.320Z,48.10
2022-12-15T20:44:51.960Z,49.22
2022-12-15T20:47:24.526Z,50.97
2022-12-15T20:49:52.748Z,51.53
2022-12-15T20:52:22.793Z,50.00
2022-12-15T20:54:50.492Z,51.13
2022-12-15T20:57:17.398Z,49.38
2022-12-15T20:59:44.725Z,52.30
2022-12-15T21:02:20.177Z,49.00
2022-12-15T21:04:47.706Z,48.55
2022-12-15T21:07:14.537Z,47.55
2022-12-15T21:09:41.119Z,48.70
2022-12-15T21:12:27.841Z,49.88
2022-12-15T21:14:55.144Z,49.55
2022-12-15T21:17:24.148Z,48.40
2022-12-15T21:19:50.739Z,52.13
2022-12-15T21:22:23.919Z,48.33
2022-12-15T21:24:52.886Z,45.92
2022-12-15T21:27:20.899Z,48.95
2022-12-15T21:29:52.320Z,47.95
2022-12-15T21:32:19.390Z,49.17
2022-12-15T21:34:45.948Z,48.65
2022-12-15T21:37:23.625Z,49.83
2022-12-15T21:39:50.773Z,48.05
2022-12-15T21:42:18.844Z,51.17
2022-12-15T21:44:45.580Z,45.53
2022-12-15T21:47:49.886Z,50.22
2022-12-15T21:50:18.900Z,48.10
2022-12-15T21:52:46.058Z,47.47
2022-12-15T21:55:18.273Z,45.63
2022-12-15T21:57:45.441Z,45.05
2022-12-15T22:00:14.692Z,48.08
2022-12-15T22:02:41.387Z,48.35
2022-12-15T22:05:22.953Z,48.42
2022-12-15T22:07:50.501Z,50.75
2022-12-15T22:10:19.180Z,44.75
2022-12-15T22:12:57.519Z,51.10
2022-12-15T22:15:26.281Z,47.55
2022-12-15T22:17:52.885Z,48.13
2022-12-15T22:20:21.881Z,46.55
2022-12-15T22:22:48.966Z,45.70
2022-12-15T22:25:24.408Z,45.53
2022-12-15T22:27:52.475Z,45.20
2022-12-15T22:30:24.492Z,46.50
2022-12-15T22:32:51.509Z,43.63
2022-12-15T22:35:21.986Z,46.88
2022-12-15T22:37:53.937Z,45.35
2022-12-15T22:40:23.102Z,45.78
2022-12-15T22:42:54.872Z,47.70
2022-12-15T22:45:24.085Z,42.70
2022-12-15T22:47:52.357Z,44.80
2022-12-15T22:50:21.430Z,42.38
2022-12-15T22:52:48.353Z,42.45
2022-12-15T22:55:19.816Z,47.55
2022-12-15T22:58:08.357Z,43.00
2022-12-15T23:00:35.096Z,42.58
2022-12-15T23:03:02.485Z,45.35
2022-12-15T23:05:29.148Z,41.50
2022-12-15T23:07:55.739Z,43.15
2022-12-15T23:10:40.852Z,42.25
2022-12-15T23:13:07.448Z,42.13
2022-12-15T23:15:53.143Z,41.58
2022-12-15T23:18:21.378Z,42.13
2022-12-15T23:20:48.049Z,41.42
2022-12-15T23:23:15.426Z,38.67
2022-12-15T23:25:42.048Z,43.72
2022-12-15T23:28:08.790Z,36.80
2022-12-15T23:30:35.957Z,40.22
2022-12-15T23:33:02.589Z,39.47
2022-12-15T23:35:29.734Z,39.05
2022-12-15T23:37:57.803Z,36.42
2022-12-15T23:40:24.399Z,35.45
2022-12-15T23:42:51.445Z,36.92
2022-12-15T23:45:19.052Z,35.70
2022-12-15T23:47:45.701Z,35.20
2022-12-15T23:50:12.280Z,33.92
2022-12-15T23:52:39.060Z,34.03
2022-12-15T23:55:09.974Z,39.15
2022-12-15T23:57:37.764Z,35.40
